createdAt,value
2022-12-09T00:01:15.526Z,21.00
2022-12-09T00:03:42.773Z,24.88
2022-12-09T00:06:21.671Z,22.30
2022-12-09T00:08:49.855Z,20.15
2022-12-09T00:11:17.999Z,21.38
2022-12-09T00:13:51.899Z,20.52
2022-12-09T00:16:20.645Z,23.13
2022-12-09T00:18:48.399Z,19.00
2022-12-09T00:21:23.139Z,20.10
2022-12-09T00:23:52.142Z,23.00
2022-12-09T00:26:20.677Z,18.58
2022-12-09T00:28:50.068Z,20.60
2022-12-09T00:31:23.367Z,19.20
2022-12-09T00:33:51.426Z,19.20
2022-12-09T00:36:20.761Z,20.27
2022-12-09T00:38:49.714Z,22.17
2022-12-09T00:41:17.705Z,20.33
2022-12-09T00:43:47.736Z,19.88
2022-12-09T00:46:16.032Z,22.55
2022-12-09T00:48:45.644Z,20.15
2022-12-09T00:51:16.212Z,19.35
2022-12-09T00:53:44.028Z,15.45
2022-12-09T00:56:11.617Z,19.27
2022-12-09T00:58:38.757Z,19.48
2022-12-09T01:01:05.927Z,18.70
2022-12-09T01:03:33.580Z,20.40
2022-12-09T01:06:00.832Z,20.48
2022-12-09T01:08:27.981Z,18.45
2022-12-09T01:10:55.104Z,16.70
2022-12-09T01:13:22.225Z,23.00
2022-12-09T01:15:49.230Z,18.30
2022-12-09T01:18:16.377Z,20.15
2022-12-09T01:20:43.441Z,18.23
2022-12-09T01:23:11.488Z,17.45
2022-12-09T01:25:39.389Z,16.75
2022-12-09T01:28:06.720Z,18.10
2022-12-09T01:30:33.825Z,19.10
2022-12-09T01:33:01.140Z,16.55
2022-12-09T01:35:28.771Z,20.52
2022-12-09T01:37:55.882Z,18.60
2022-12-09T01:40:23.158Z,16.70
2022-12-09T01:42:51.111Z,15.32
2022-12-09T01:45:22.300Z,19.27
2022-12-09T01:47:57.186Z,17.23
2022-12-09T01:50:26.640Z,16.35
2022-12-09T01:52:55.655Z,17.65
2022-12-09T01:55:25.286Z,22.15
2022-12-09T01:57:53.053Z,15.15
2022-12-09T02:00:21.570Z,17.70
2022-12-09T02:02:52.377Z,17.08
2022-12-09T02:05:21.846Z,17.45
2022-12-09T02:07:54.375Z,16.85
2022-12-09T02:10:22.101Z,21.20
2022-12-09T02:12:56.416Z,15.57
2022-12-09T02:15:42.375Z,17.30
2022-12-09T02:18:24.099Z,20.17
2022-12-09T02:21:04.570Z,20.30
2022-12-09T02:23:46.580Z,18.85
2022-12-09T02:29:21.036Z,18.17
2022-12-09T02:32:16.349Z,16.67
2022-12-09T02:34:54.875Z,23.58
2022-12-09T02:37:46.182Z,21.98
2022-12-09T02:40:24.201Z,17.33
2022-12-09T02:42:51.914Z,17.45
2022-12-09T02:45:21.470Z,20.77
2022-12-09T02:47:53.957Z,18.55
2022-12-09T02:50:25.494Z,22.15
2022-12-09T02:52:54.558Z,18.73
2022-12-09T02:55:23.186Z,19.02
2022-12-09T02:57:56.360Z,18.13
2022-12-09T03:00:23.743Z,18.98
2022-12-09T03:02:55.211Z,18.23
2022-12-09T03:05:37.099Z,18.27
2022-12-09T03:08:42.129Z,14.80
2022-12-09T03:11:16.554Z,20.42
2022-12-09T03:13:48.620Z,19.05
2022-12-09T03:16:47.414Z,19.75
2022-12-09T03:19:17.489Z,18.75
2022-12-09T03:21:47.676Z,17.27
2022-12-09T03:24:20.265Z,18.30
2022-12-09T03:26:50.967Z,17.35
2022-12-09T03:29:21.942Z,17.15
2022-12-09T03:31:51.096Z,16.23
2022-12-09T03:34:25.769Z,17.15
2022-12-09T03:36:53.828Z,13.93
2022-12-09T03:39:26.250Z,13.95
2022-12-09T03:41:58.436Z,14.88
2022-12-09T03:44:47.094Z,17.17
2022-12-09T03:47:14.388Z,16.27
2022-12-09T03:49:41.890Z,14.95
2022-12-09T03:52:15.763Z,15.93
2022-12-09T03:54:48.567Z,15.02
2022-12-09T03:57:19.473Z,17.30
2022-12-09T03:59:58.063Z,12.88
2022-12-09T04:02:25.513Z,18.27
2022-12-09T04:04:52.783Z,14.75
2022-12-09T04:07:20.147Z,20.63
2022-12-09T04:09:47.771Z,16.15
2022-12-09T04:12:15.164Z,17.63
2022-12-09T04:14:42.119Z,13.18
2022-12-09T04:17:11.398Z,15.43
2022-12-09T04:19:38.848Z,13.02
2022-12-09T04:22:06.187Z,14.63
2022-12-09T04:24:33.257Z,12.57
2022-12-09T04:27:00.241Z,15.27
2022-12-09T04:29:27.506Z,17.98
2022-12-09T04:31:54.906Z,14.10
2022-12-09T04:34:22.056Z,17.40
2022-12-09T04:36:50.005Z,14.25
2022-12-09T04:39:17.143Z,17.27
2022-12-09T04:41:44.137Z,20.20
2022-12-09T04:44:11.350Z,16.73
2022-12-09T04:46:38.677Z,12.30
2022-12-09T04:49:05.642Z,15.60
2022-12-09T04:51:39.107Z,11.95
2022-12-09T04:54:07.828Z,13.57
2022-12-09T04:56:34.913Z,19.52
2022-12-09T04:59:01.980Z,18.35
2022-12-09T05:01:31.497Z,14.35
2022-12-09T05:03:59.525Z,14.07
2022-12-09T05:06:27.531Z,13.35
2022-12-09T05:08:54.973Z,17.60
2022-12-09T05:11:24.164Z,17.17
2022-12-09T05:13:55.900Z,15.20
2022-12-09T05:16:23.330Z,15.65
2022-12-09T05:18:50.830Z,16.13
2022-12-09T05:21:20.241Z,19.02
2022-12-09T05:23:48.882Z,17.20
2022-12-09T05:26:20.635Z,14.88
2022-12-09T05:28:48.300Z,14.00
2022-12-09T05:31:19.830Z,21.45
2022-12-09T05:33:48.762Z,15.70
2022-12-09T05:36:18.929Z,15.10
2022-12-09T05:38:48.324Z,18.02
2022-12-09T05:41:15.438Z,14.27
2022-12-09T05:43:42.933Z,19.40
2022-12-09T05:46:11.521Z,11.65
2022-12-09T05:48:39.116Z,16.35
2022-12-09T05:51:13.066Z,14.50
2022-12-09T05:56:07.510Z,12.80
2022-12-09T05:58:35.165Z,17.13
2022-12-09T06:01:10.149Z,12.13
2022-12-09T06:03:37.947Z,13.18
2022-12-09T06:06:09.453Z,11.88
2022-12-09T06:08:38.006Z,15.70
2022-12-09T06:11:08.719Z,11.93
2022-12-09T06:13:36.600Z,18.45
2022-12-09T06:16:05.410Z,18.15
2022-12-09T06:18:33.184Z,13.63
2022-12-09T06:21:04.868Z,15.13
2022-12-09T06:23:32.148Z,20.00
2022-12-09T06:25:59.516Z,14.00
2022-12-09T06:28:26.762Z,17.25
2022-12-09T06:30:53.977Z,15.02
2022-12-09T06:33:45.977Z,15.75
2022-12-09T06:36:08.611Z,25.85
2022-12-09T06:38:35.941Z,26.48
2022-12-09T06:41:07.608Z,19.23
2022-12-09T06:43:35.181Z,19.42
2022-12-09T06:46:02.701Z,17.42
2022-12-09T06:48:30.178Z,17.52
2022-12-09T06:50:57.457Z,14.60
2022-12-09T06:53:24.740Z,18.08
2022-12-09T06:55:51.805Z,16.92
2022-12-09T06:58:19.276Z,15.88
2022-12-09T07:00:47.286Z,18.33
2022-12-09T07:03:14.540Z,16.88
2022-12-09T07:05:42.266Z,17.20
2022-12-09T07:08:09.507Z,22.95
2022-12-09T07:10:37.026Z,20.48
2022-12-09T07:13:04.277Z,15.10
2022-12-09T07:15:31.599Z,14.35
2022-12-09T07:17:58.697Z,18.05
2022-12-09T07:20:26.126Z,13.93
2022-12-09T07:22:53.256Z,16.60
2022-12-09T07:25:20.446Z,18.75
2022-12-09T07:27:47.822Z,16.42
2022-12-09T07:30:15.022Z,17.08
2022-12-09T07:32:42.216Z,19.58
2022-12-09T07:35:10.803Z,18.02
2022-12-09T07:37:39.390Z,16.85
2022-12-09T07:40:07.942Z,16.10
2022-12-09T07:42:36.589Z,15.40
2022-12-09T07:45:06.135Z,20.08
2022-12-09T07:47:34.213Z,16.00
2022-12-09T07:50:06.372Z,14.13
2022-12-09T07:52:34.366Z,18.55
2022-12-09T07:55:01.612Z,19.05
2022-12-09T07:57:29.130Z,16.35
2022-12-09T07:59:56.910Z,23.08
2022-12-09T08:02:24.067Z,16.83
2022-12-09T08:04:51.187Z,16.48
2022-12-09T08:07:18.509Z,17.35
2022-12-09T08:09:45.719Z,21.92
2022-12-09T08:12:13.131Z,24.00
2022-12-09T08:14:40.467Z,23.35
2022-12-09T08:17:08.061Z,20.60
2022-12-09T08:19:35.433Z,17.88
2022-12-09T08:22:03.018Z,19.02
2022-12-09T08:24:30.113Z,17.13
2022-12-09T08:26:57.362Z,21.67
2022-12-09T08:29:24.429Z,18.15
2022-12-09T08:31:51.575Z,19.85
2022-12-09T08:34:19.839Z,19.90
2022-12-09T08:36:47.101Z,18.20
2022-12-09T08:39:15.033Z,19.65
2022-12-09T08:41:43.860Z,18.15
2022-12-09T08:44:19.570Z,19.15
2022-12-09T08:46:49.471Z,20.77
2022-12-09T08:49:19.338Z,20.48
2022-12-09T08:51:51.822Z,19.40
2022-12-09T08:54:19.289Z,23.83
2022-12-09T08:56:48.768Z,18.90
2022-12-09T08:59:16.995Z,24.63
2022-12-09T09:01:44.797Z,23.75
2022-12-09T09:04:14.464Z,25.52
2022-12-09T09:06:44.352Z,26.17
2022-12-09T09:09:13.498Z,21.17
2022-12-09T09:11:41.656Z,30.73
2022-12-09T09:14:11.567Z,35.78
2022-12-09T09:16:41.884Z,32.72
2022-12-09T09:19:13.311Z,32.58
2022-12-09T09:21:40.873Z,25.60
2022-12-09T09:24:12.872Z,31.52
2022-12-09T09:26:42.626Z,35.95
2022-12-09T09:29:15.179Z,32.30
2022-12-09T09:31:43.111Z,41.45
2022-12-09T09:34:11.108Z,29.52
2022-12-09T09:36:39.700Z,34.60
2022-12-09T09:39:06.954Z,47.42
2022-12-09T09:41:34.047Z,38.20
2022-12-09T09:44:02.070Z,41.22
2022-12-09T09:46:44.003Z,41.72
2022-12-09T09:49:18.926Z,31.95
2022-12-09T09:51:47.739Z,31.05
2022-12-09T09:54:16.058Z,42.35
2022-12-09T09:57:07.029Z,38.58
2022-12-09T09:59:55.204Z,32.72
2022-12-09T10:02:47.270Z,31.83
2022-12-09T10:05:24.668Z,38.10
2022-12-09T10:08:05.193Z,39.95
2022-12-09T10:11:07.345Z,27.95
2022-12-09T10:13:41.113Z,37.38
2022-12-09T10:16:19.988Z,30.77
2022-12-09T10:18:49.876Z,36.58
2022-12-09T10:21:20.408Z,32.17
2022-12-09T10:23:49.748Z,35.20
2022-12-09T10:26:30.479Z,33.30
2022-12-09T10:29:36.261Z,32.80
2022-12-09T10:32:03.488Z,31.73
2022-12-09T10:34:31.118Z,35.88
2022-12-09T10:36:58.435Z,38.20
2022-12-09T10:39:25.538Z,35.22
2022-12-09T10:42:14.750Z,35.38
2022-12-09T10:44:42.470Z,34.33
2022-12-09T10:47:27.233Z,34.83
2022-12-09T10:49:55.801Z,40.15
2022-12-09T10:52:26.384Z,34.35
2022-12-09T10:54:54.404Z,41.35
2022-12-09T10:57:28.276Z,34.97
2022-12-09T11:00:19.831Z,40.08
2022-12-09T11:02:54.998Z,37.00
2022-12-09T11:05:27.918Z,35.63
2022-12-09T11:07:58.243Z,36.35
2022-12-09T11:10:28.526Z,37.33
2022-12-09T11:13:07.571Z,38.15
2022-12-09T11:15:44.848Z,36.40
2022-12-09T11:18:32.996Z,37.65
2022-12-09T11:21:03.372Z,34.67
2022-12-09T11:23:31.665Z,35.60
2022-12-09T11:26:01.851Z,38.15
2022-12-09T11:28:32.083Z,38.40
2022-12-09T11:36:46.923Z,27.90
2022-12-09T11:39:16.938Z,29.25
2022-12-09T11:42:16.509Z,30.90
2022-12-09T11:44:56.845Z,32.00
2022-12-09T11:47:33.585Z,24.80
2022-12-09T11:50:20.462Z,28.05
2022-12-09T11:53:12.643Z,26.98
2022-12-09T11:55:48.980Z,20.73
2022-12-09T11:58:22.487Z,20.52
2022-12-09T12:00:55.227Z,23.88
2022-12-09T12:03:42.377Z,16.92
2022-12-09T12:06:22.502Z,20.50
2022-12-09T12:09:04.353Z,19.23
2022-12-09T12:11:45.023Z,15.77
2022-12-09T12:14:24.357Z,17.45
2022-12-09T12:17:07.201Z,18.20
2022-12-09T12:19:37.434Z,20.48
2022-12-09T12:22:33.330Z,14.63
2022-12-09T12:25:18.465Z,17.27
2022-12-09T12:28:03.618Z,17.70
2022-12-09T12:30:50.797Z,12.70
2022-12-09T12:34:08.198Z,13.27
2022-12-09T12:39:36.735Z,14.25
2022-12-09T12:42:31.890Z,14.77
2022-12-09T12:45:31.615Z,16.42
2022-12-09T12:48:20.587Z,19.00
2022-12-09T12:50:54.538Z,16.65
2022-12-09T12:53:27.637Z,15.02
2022-12-09T12:56:09.295Z,11.67
2022-12-09T12:58:54.859Z,12.57
2022-12-09T13:01:46.601Z,11.43
2022-12-09T13:04:17.587Z,11.10
2022-12-09T13:06:55.023Z,11.65
2022-12-09T13:09:40.749Z,12.70
2022-12-09T13:12:14.367Z,8.38
2022-12-09T13:14:55.568Z,11.55
2022-12-09T13:17:28.778Z,9.55
2022-12-09T13:20:00.626Z,12.20
2022-12-09T13:22:47.884Z,10.98
2022-12-09T13:25:41.582Z,10.07
2022-12-09T13:28:15.771Z,13.38
2022-12-09T13:33:36.182Z,11.55
2022-12-09T13:36:25.383Z,10.20
2022-12-09T13:38:54.311Z,11.90
2022-12-09T13:41:27.241Z,8.55
2022-12-09T13:44:17.735Z,9.82
2022-12-09T13:46:45.485Z,10.15
2022-12-09T13:49:32.767Z,8.52
2022-12-09T13:51:59.796Z,8.57
2022-12-09T13:54:29.064Z,10.15
2022-12-09T13:59:53.402Z,9.38
2022-12-09T14:02:26.357Z,10.68
2022-12-09T14:05:13.162Z,10.07
2022-12-09T14:07:48.551Z,10.00
2022-12-09T14:10:43.156Z,8.68
2022-12-09T14:13:29.934Z,8.15
2022-12-09T14:16:16.893Z,9.27
2022-12-09T14:18:44.971Z,8.63
2022-12-09T14:21:17.733Z,13.68
2022-12-09T14:24:09.615Z,10.93
2022-12-09T14:26:59.979Z,8.18
2022-12-09T14:29:47.030Z,8.55
2022-12-09T14:32:20.005Z,11.48
2022-12-09T14:34:58.715Z,9.02
2022-12-09T14:37:25.767Z,9.52
2022-12-09T14:40:15.629Z,8.80
2022-12-09T14:43:19.783Z,7.93
2022-12-09T14:46:02.581Z,9.60
2022-12-09T14:48:35.693Z,8.88
2022-12-09T14:51:18.738Z,8.57
2022-12-09T14:53:54.203Z,10.02
2022-12-09T14:56:23.491Z,8.20
2022-12-09T14:58:54.688Z,11.35
2022-12-09T15:01:21.720Z,9.93
2022-12-09T15:04:06.588Z,10.07
2022-12-09T15:06:34.762Z,9.77
2022-12-09T15:09:01.666Z,9.10
2022-12-09T15:11:33.757Z,9.02
2022-12-09T15:14:23.446Z,12.32
2022-12-09T15:16:51.262Z,9.02
2022-12-09T15:19:58.713Z,9.35
2022-12-09T15:22:22.457Z,9.18
2022-12-09T15:24:51.111Z,11.23
2022-12-09T15:27:21.375Z,9.15
2022-12-09T15:29:48.582Z,9.73
2022-12-09T15:32:28.335Z,10.48
2022-12-09T15:34:55.948Z,8.25
2022-12-09T15:37:27.255Z,9.90
2022-12-09T15:40:00.535Z,10.13
2022-12-09T15:42:31.122Z,10.10
2022-12-09T15:45:01.241Z,11.68
2022-12-09T15:47:49.918Z,9.88
2022-12-09T15:50:32.006Z,9.07
2022-12-09T15:53:38.278Z,8.85
2022-12-09T15:56:20.665Z,8.93
2022-12-09T15:58:57.202Z,9.63
2022-12-09T16:01:27.981Z,9.68
2022-12-09T16:03:57.132Z,8.90
2022-12-09T16:06:37.409Z,11.13
2022-12-09T16:09:19.982Z,9.65
2022-12-09T16:11:52.989Z,13.52
2022-12-09T16:14:22.525Z,12.10
2022-12-09T16:17:01.641Z,12.35
2022-12-09T16:19:31.650Z,17.35
2022-12-09T16:22:11.534Z,16.27
2022-12-09T16:27:39.312Z,12.40
2022-12-09T16:30:22.360Z,10.93
2022-12-09T16:33:03.354Z,10.77
2022-12-09T16:35:46.302Z,12.32
2022-12-09T16:38:16.751Z,10.95
2022-12-09T16:40:43.892Z,11.32
2022-12-09T16:43:16.839Z,12.85
2022-12-09T16:45:48.335Z,11.43
2022-12-09T16:48:17.273Z,9.93
2022-12-09T16:50:52.472Z,11.15
2022-12-09T16:53:41.203Z,10.10
2022-12-09T16:56:24.934Z,10.48
2022-12-09T16:58:52.988Z,12.20
2022-12-09T17:01:22.873Z,12.85
2022-12-09T17:03:57.997Z,11.75
2022-12-09T17:06:25.305Z,12.77
2022-12-09T17:08:52.293Z,13.93
2022-12-09T17:11:21.562Z,11.80
2022-12-09T17:13:49.906Z,12.65
2022-12-09T17:16:17.810Z,14.93
2022-12-09T17:18:44.909Z,11.05
2022-12-09T17:21:14.115Z,11.00
2022-12-09T17:23:41.579Z,10.23
2022-12-09T17:26:12.614Z,10.02
2022-12-09T17:28:40.594Z,12.07
2022-12-09T17:31:09.961Z,11.38
2022-12-09T17:33:37.384Z,9.65
2022-12-09T17:36:05.359Z,13.13
2022-12-09T17:38:32.407Z,10.20
2022-12-09T17:41:05.180Z,9.02
2022-12-09T17:43:32.165Z,9.55
2022-12-09T17:46:00.819Z,9.35
2022-12-09T17:48:29.899Z,10.15
2022-12-09T17:50:56.888Z,14.45
2022-12-09T17:53:24.906Z,9.32
2022-12-09T17:55:51.896Z,10.30
2022-12-09T17:58:18.871Z,8.93
2022-12-09T18:00:47.834Z,9.05
2022-12-09T18:03:22.401Z,10.80
2022-12-09T18:06:02.106Z,9.02
2022-12-09T18:08:30.040Z,11.15
2022-12-09T18:10:57.170Z,9.15
2022-12-09T18:13:24.098Z,9.63
2022-12-09T18:15:54.277Z,8.63
2022-12-09T18:18:21.693Z,10.88
2022-12-09T18:20:48.664Z,10.07
2022-12-09T18:23:15.981Z,9.20
2022-12-09T18:25:43.994Z,9.57
2022-12-09T18:28:10.998Z,9.20
2022-12-09T18:30:38.936Z,10.50
2022-12-09T18:33:06.356Z,9.30
2022-12-09T18:35:33.733Z,9.95
2022-12-09T18:38:09.686Z,8.93
2022-12-09T18:41:00.458Z,15.32
2022-12-09T18:43:38.367Z,11.30
2022-12-09T18:46:15.094Z,11.95
2022-12-09T18:48:42.449Z,12.82
2022-12-09T18:51:22.241Z,11.35
2022-12-09T18:53:49.282Z,10.98
2022-12-09T18:56:17.298Z,11.80
2022-12-09T18:59:05.258Z,10.65
2022-12-09T19:01:32.920Z,9.50
2022-12-09T19:04:02.069Z,8.90
2022-12-09T19:06:32.426Z,11.38
2022-12-09T19:09:26.742Z,8.90
2022-12-09T19:11:54.303Z,10.20
2022-12-09T19:14:22.619Z,9.63
2022-12-09T19:16:50.773Z,11.43
2022-12-09T19:19:20.651Z,10.90
2022-12-09T19:21:48.256Z,12.40
2022-12-09T19:24:21.305Z,12.00
2022-12-09T19:26:48.764Z,12.40
2022-12-09T19:29:17.700Z,13.52
2022-12-09T19:31:47.363Z,15.45
2022-12-09T19:34:21.211Z,13.82
2022-12-09T19:39:17.991Z,19.83
2022-12-09T19:41:45.552Z,17.10
2022-12-09T19:44:30.942Z,19.98
2022-12-09T19:47:04.072Z,20.25
2022-12-09T19:49:31.162Z,19.27
2022-12-09T19:52:00.033Z,25.98
2022-12-09T19:54:29.668Z,20.02
2022-12-09T19:56:56.969Z,25.17
2022-12-09T19:59:24.358Z,20.92
2022-12-09T20:01:51.551Z,22.70
2022-12-09T20:07:08.622Z,25.35
2022-12-09T20:09:37.033Z,23.30
2022-12-09T20:12:04.667Z,19.95
2022-12-09T20:14:31.623Z,27.30
2022-12-09T20:16:58.682Z,29.52
2022-12-09T20:19:25.641Z,23.70
2022-12-09T20:21:52.671Z,18.52
2022-12-09T20:24:19.666Z,26.73
2022-12-09T20:26:46.675Z,24.40
2022-12-09T20:29:13.619Z,28.92
2022-12-09T20:31:42.671Z,42.15
2022-12-09T20:34:14.576Z,32.78
2022-12-09T20:36:43.439Z,45.10
2022-12-09T20:39:19.501Z,40.15
2022-12-09T20:41:48.413Z,43.13
2022-12-09T20:44:17.271Z,47.97
2022-12-09T20:46:50.998Z,48.15
2022-12-09T20:49:22.002Z,39.97
2022-12-09T20:51:49.217Z,47.35
2022-12-09T20:54:16.419Z,53.88
2022-12-09T20:56:43.839Z,49.53
2022-12-09T20:59:15.317Z,47.15
2022-12-09T21:01:43.743Z,66.18
2022-12-09T21:04:10.779Z,57.78
2022-12-09T21:06:40.611Z,55.60
2022-12-09T21:09:14.990Z,63.45
2022-12-09T21:11:42.040Z,60.03
2022-12-09T21:14:10.692Z,60.20
2022-12-09T21:16:39.906Z,69.15
2022-12-09T21:19:10.396Z,66.93
2022-12-09T21:21:40.524Z,56.78
2022-12-09T21:24:09.366Z,56.90
2022-12-09T21:26:36.793Z,58.55
2022-12-09T21:29:04.235Z,51.00
2022-12-09T21:31:33.980Z,56.58
2022-12-09T21:34:04.486Z,56.05
2022-12-09T21:36:42.764Z,57.47
2022-12-09T21:39:13.720Z,55.75
2022-12-09T21:41:41.783Z,52.85
2022-12-09T21:44:13.119Z,61.85
2022-12-09T21:46:40.232Z,63.05
2022-12-09T21:49:07.298Z,56.38
2022-12-09T21:51:35.131Z,52.90
2022-12-09T21:54:03.326Z,56.72
2022-12-09T21:56:33.149Z,65.13
2022-12-09T21:59:00.963Z,49.17
2022-12-09T22:01:30.525Z,54.78
2022-12-09T22:03:58.462Z,58.55
2022-12-09T22:06:25.515Z,52.42
2022-12-09T22:08:52.694Z,55.85
2022-12-09T22:11:22.822Z,56.03
2022-12-09T22:13:50.654Z,62.25
2022-12-09T22:16:22.300Z,47.08
2022-12-09T22:18:50.202Z,65.18
2022-12-09T22:21:27.024Z,50.60
2022-12-09T22:23:56.943Z,53.67
2022-12-09T22:26:24.894Z,59.80
2022-12-09T22:28:52.521Z,59.30
2022-12-09T22:31:26.222Z,66.20
2022-12-09T22:33:55.675Z,57.67
2022-12-09T22:36:23.111Z,68.50
2022-12-09T22:38:50.792Z,59.15
2022-12-09T22:41:22.238Z,57.03
2022-12-09T22:43:50.308Z,55.88
2022-12-09T22:46:23.582Z,61.15
2022-12-09T22:48:50.758Z,69.43
2022-12-09T22:51:21.781Z,62.20
2022-12-09T22:53:53.346Z,60.53
2022-12-09T22:56:21.243Z,56.08
2022-12-09T22:58:48.742Z,51.28
2022-12-09T23:01:27.799Z,49.55
2022-12-09T23:03:55.931Z,53.80
2022-12-09T23:06:23.468Z,54.30
2022-12-09T23:08:50.715Z,52.50
2022-12-09T23:11:24.469Z,48.75
2022-12-09T23:13:51.930Z,50.08
2022-12-09T23:16:24.625Z,59.92
2022-12-09T23:18:52.775Z,56.13
2022-12-09T23:21:34.302Z,48.58
2022-12-09T23:24:04.209Z,49.67
2022-12-09T23:26:34.010Z,52.50
2022-12-09T23:29:01.859Z,69.70
2022-12-09T23:31:32.020Z,54.05
2022-12-09T23:34:00.178Z,63.47
2022-12-09T23:36:31.050Z,51.33
2022-12-09T23:38:58.828Z,58.38
2022-12-09T23:41:26.262Z,50.75
2022-12-09T23:43:53.745Z,68.10
2022-12-09T23:46:23.992Z,58.17
2022-12-09T23:48:52.674Z,53.53
2022-12-09T23:51:22.143Z,50.35
2022-12-09T23:53:51.148Z,56.40
2022-12-09T23:56:23.541Z,55.45
2022-12-09T23:58:55.568Z,57.15
